createdAt,value
2023-03-26T00:02:26.829Z,26.85
2023-03-26T00:06:26.968Z,26.86
2023-03-26T00:10:27.174Z,26.85
2023-03-26T00:14:27.326Z,26.86
2023-03-26T00:18:27.521Z,26.83
2023-03-26T00:22:27.717Z,26.85
2023-03-26T00:26:27.808Z,26.86
2023-03-26T00:30:27.984Z,26.85
2023-03-26T00:34:28.033Z,26.86
2023-03-26T00:38:28.097Z,26.86
2023-03-26T00:42:28.275Z,26.85
2023-03-26T00:46:28.430Z,26.88
2023-03-26T00:50:28.504Z,26.85
2023-03-26T00:54:28.640Z,26.89
2023-03-26T00:58:28.703Z,26.85
2023-03-26T01:02:28.935Z,26.85
2023-03-26T01:06:29.066Z,26.85
2023-03-26T01:10:29.221Z,26.85
2023-03-26T01:14:29.342Z,26.86
2023-03-26T01:18:29.463Z,26.86
2023-03-26T01:22:29.653Z,26.85
2023-03-26T01:26:29.872Z,26.83
2023-03-26T01:30:29.974Z,26.83
2023-03-26T01:34:30.187Z,26.83
2023-03-26T01:38:30.356Z,26.83
2023-03-26T01:42:30.522Z,26.85
2023-03-26T01:46:30.671Z,26.83
2023-03-26T01:50:30.679Z,26.83
2023-03-26T01:54:30.859Z,26.82
2023-03-26T01:58:31.079Z,26.85
2023-03-26T02:02:31.346Z,26.83
2023-03-26T02:06:31.368Z,26.82
2023-03-26T02:10:31.570Z,26.86
2023-03-26T02:14:31.883Z,26.85
2023-03-26T02:18:31.985Z,26.85
2023-03-26T02:22:32.216Z,26.85
2023-03-26T02:26:32.405Z,26.86
2023-03-26T02:30:32.596Z,26.85
2023-03-26T02:34:32.756Z,26.82
2023-03-26T02:38:32.804Z,26.83
2023-03-26T02:42:32.958Z,26.85
2023-03-26T02:46:33.253Z,26.85
2023-03-26T02:50:33.361Z,26.86
2023-03-26T02:54:33.567Z,26.85
2023-03-26T02:58:33.746Z,26.83
2023-03-26T03:02:33.981Z,26.85
2023-03-26T03:06:34.006Z,26.85
2023-03-26T03:10:34.099Z,26.85
2023-03-26T03:14:34.225Z,26.83
2023-03-26T03:18:34.379Z,26.83
2023-03-26T03:22:34.575Z,26.82
2023-03-26T03:26:34.664Z,26.85
2023-03-26T03:30:34.779Z,26.83
2023-03-26T03:34:34.969Z,26.81
2023-03-26T03:38:35.013Z,26.83
2023-03-26T03:42:35.159Z,26.82
2023-03-26T03:46:35.374Z,26.83
2023-03-26T03:50:36.064Z,26.81
2023-03-26T03:54:35.624Z,26.82
2023-03-26T03:58:35.721Z,26.85
2023-03-26T04:02:35.959Z,26.85
2023-03-26T04:06:36.010Z,26.82
2023-03-26T04:10:36.177Z,26.83
2023-03-26T04:14:36.323Z,26.81
2023-03-26T04:18:36.458Z,26.82
2023-03-26T04:22:36.650Z,26.82
2023-03-26T04:26:36.736Z,26.83
2023-03-26T04:30:36.859Z,26.79
2023-03-26T04:34:37.013Z,26.79
2023-03-26T04:38:37.163Z,26.81
2023-03-26T04:42:37.293Z,26.79
2023-03-26T04:46:37.430Z,26.82
2023-03-26T04:50:37.587Z,26.79
2023-03-26T04:54:37.733Z,26.82
2023-03-26T04:58:37.864Z,26.81
2023-03-26T05:02:38.051Z,26.79
2023-03-26T05:06:38.164Z,26.79
2023-03-26T05:10:38.283Z,26.81
2023-03-26T05:14:38.454Z,26.79
2023-03-26T05:18:38.602Z,26.78
2023-03-26T05:22:38.697Z,26.79
2023-03-26T05:26:38.839Z,26.81
2023-03-26T05:30:38.926Z,26.81
2023-03-26T05:34:39.081Z,26.82
2023-03-26T05:38:39.187Z,26.79
2023-03-26T05:42:39.305Z,26.82
2023-03-26T05:46:39.422Z,26.79
2023-03-26T05:50:39.566Z,26.82
2023-03-26T05:54:39.691Z,26.83
2023-03-26T05:58:39.796Z,26.85
2023-03-26T06:02:39.934Z,26.83
2023-03-26T06:06:40.040Z,26.86
2023-03-26T06:10:40.170Z,26.86
2023-03-26T06:14:40.343Z,26.89
2023-03-26T06:18:40.457Z,26.86
2023-03-26T06:22:40.537Z,26.90
2023-03-26T06:26:40.620Z,26.93
2023-03-26T06:30:40.778Z,26.93
2023-03-26T06:34:40.920Z,26.95
2023-03-26T06:38:40.959Z,27.00
2023-03-26T06:43:08.226Z,27.06
2023-03-26T06:46:42.214Z,27.09
2023-03-26T06:50:41.123Z,27.10
2023-03-26T06:54:41.183Z,27.14
2023-03-26T06:58:41.216Z,27.14
2023-03-26T07:02:41.317Z,27.17
2023-03-26T07:06:41.439Z,27.20
2023-03-26T07:10:41.575Z,27.30
2023-03-26T07:14:41.698Z,27.43
2023-03-26T07:18:41.835Z,27.57
2023-03-26T07:22:41.949Z,27.61
2023-03-26T07:26:42.122Z,27.61
2023-03-26T07:30:42.181Z,27.62
2023-03-26T07:34:42.318Z,27.57
2023-03-26T07:38:42.417Z,27.57
2023-03-26T07:42:42.540Z,27.58
2023-03-26T07:46:42.595Z,27.62
2023-03-26T07:50:42.725Z,27.65
2023-03-26T07:54:42.800Z,27.68
2023-03-26T07:58:42.826Z,27.75
2023-03-26T08:02:42.924Z,27.77
2023-03-26T08:06:42.958Z,27.84
2023-03-26T08:10:43.070Z,27.87
2023-03-26T08:14:43.186Z,27.84
2023-03-26T08:18:43.253Z,27.83
2023-03-26T08:22:43.397Z,27.87
2023-03-26T08:26:43.514Z,27.91
2023-03-26T08:30:43.753Z,27.99
2023-03-26T08:34:43.767Z,28.08
2023-03-26T08:38:45.136Z,28.15
2023-03-26T08:42:43.809Z,28.26
2023-03-26T08:46:43.807Z,28.30
2023-03-26T08:50:43.749Z,28.36
2023-03-26T08:54:43.705Z,28.38
2023-03-26T08:58:43.694Z,28.39
2023-03-26T09:02:43.683Z,28.35
2023-03-26T09:06:43.615Z,28.30
2023-03-26T09:10:43.544Z,28.25
2023-03-26T09:14:43.509Z,28.19
2023-03-26T09:18:43.481Z,28.16
2023-03-26T09:22:43.455Z,28.11
2023-03-26T09:26:43.409Z,28.02
2023-03-26T09:30:43.377Z,27.98
2023-03-26T09:34:43.364Z,27.95
2023-03-26T09:38:43.298Z,27.94
2023-03-26T09:42:43.257Z,27.95
2023-03-26T09:46:44.489Z,27.95
2023-03-26T09:50:43.255Z,28.01
2023-03-26T09:54:43.192Z,28.05
2023-03-26T09:58:43.151Z,28.05
2023-03-26T10:02:46.456Z,28.09
2023-03-26T10:06:43.095Z,28.05
2023-03-26T10:10:43.060Z,28.07
2023-03-26T10:14:43.031Z,28.05
2023-03-26T10:18:42.975Z,28.04
2023-03-26T10:22:42.954Z,27.98
2023-03-26T10:27:08.747Z,27.97
2023-03-26T10:30:44.094Z,27.91
2023-03-26T10:34:42.996Z,27.89
2023-03-26T10:38:42.960Z,27.89
2023-03-26T10:42:43.039Z,27.85
2023-03-26T10:46:43.192Z,27.83
2023-03-26T10:50:43.325Z,27.78
2023-03-26T10:54:43.444Z,27.81
2023-03-26T10:58:48.525Z,27.77
2023-03-26T11:02:44.642Z,27.80
2023-03-26T11:06:43.513Z,27.78
2023-03-26T11:10:43.504Z,27.80
2023-03-26T11:14:43.548Z,27.83
2023-03-26T11:18:43.704Z,27.81
2023-03-26T11:22:43.866Z,27.83
2023-03-26T11:26:44.049Z,27.84
2023-03-26T11:30:44.224Z,27.83
2023-03-26T11:34:44.315Z,27.85
2023-03-26T11:38:44.432Z,27.84
2023-03-26T11:42:44.581Z,27.85
2023-03-26T11:46:44.719Z,27.84
2023-03-26T11:50:44.856Z,27.83
2023-03-26T11:54:44.964Z,27.81
2023-03-26T11:58:45.107Z,27.78
2023-03-26T12:02:45.307Z,27.77
2023-03-26T12:06:45.395Z,27.71
2023-03-26T12:10:45.461Z,27.70
2023-03-26T12:14:45.522Z,27.70
2023-03-26T12:18:45.664Z,27.64
2023-03-26T12:22:47.746Z,27.64
2023-03-26T12:26:45.770Z,27.60
2023-03-26T12:30:45.834Z,27.60
2023-03-26T12:34:45.924Z,27.58
2023-03-26T12:38:45.998Z,27.51
2023-03-26T12:44:49.467Z,27.50
2023-03-26T12:47:56.345Z,27.50
2023-03-26T12:50:46.858Z,27.50
2023-03-26T12:54:45.831Z,27.46
2023-03-26T12:58:45.796Z,27.44
2023-03-26T13:02:45.838Z,27.43
2023-03-26T13:06:59.102Z,27.41
2023-03-26T13:10:46.682Z,27.40
2023-03-26T13:14:45.643Z,27.43
2023-03-26T13:18:45.596Z,27.39
2023-03-26T13:22:45.673Z,27.39
2023-03-26T13:26:45.786Z,27.41
2023-03-26T13:30:45.949Z,27.37
2023-03-26T13:34:45.981Z,27.37
2023-03-26T13:38:58.959Z,27.36
2023-03-26T13:42:47.059Z,27.34
2023-03-26T13:46:45.998Z,27.36
2023-03-26T13:50:45.962Z,27.33
2023-03-26T13:54:45.980Z,27.34
2023-03-26T13:58:46.088Z,27.34
2023-03-26T14:02:46.205Z,27.32
2023-03-26T14:06:46.302Z,27.32
2023-03-26T14:10:46.409Z,27.30
2023-03-26T14:14:48.534Z,27.30
2023-03-26T14:18:46.771Z,27.30
2023-03-26T14:22:46.793Z,27.27
2023-03-26T14:26:46.986Z,27.32
2023-03-26T14:30:47.120Z,27.29
2023-03-26T14:34:47.292Z,27.27
2023-03-26T14:38:47.373Z,27.27
2023-03-26T14:42:47.513Z,27.26
2023-03-26T14:46:47.782Z,27.23
2023-03-26T14:50:47.819Z,27.23
2023-03-26T14:54:47.945Z,27.22
2023-03-26T14:58:48.025Z,27.22
2023-03-26T15:02:48.176Z,27.20
2023-03-26T15:06:48.333Z,27.22
2023-03-26T15:10:48.482Z,27.22
2023-03-26T15:14:48.640Z,27.19
2023-03-26T15:18:48.839Z,27.19
2023-03-26T15:22:48.922Z,27.19
2023-03-26T15:26:49.037Z,27.17
2023-03-26T15:30:49.194Z,27.16
2023-03-26T15:34:49.344Z,27.17
2023-03-26T15:38:49.510Z,27.19
2023-03-26T15:42:49.628Z,27.16
2023-03-26T15:46:49.775Z,27.16
2023-03-26T15:50:49.912Z,27.16
2023-03-26T15:54:50.028Z,27.13
2023-03-26T15:58:50.204Z,27.16
2023-03-26T16:02:50.540Z,27.14
2023-03-26T16:06:50.516Z,27.14
2023-03-26T16:10:50.692Z,27.13
2023-03-26T16:14:50.873Z,27.16
2023-03-26T16:18:51.030Z,27.11
2023-03-26T16:22:51.237Z,27.11
2023-03-26T16:26:51.397Z,27.13
2023-03-26T16:30:51.596Z,27.11
2023-03-26T16:34:51.692Z,27.13
2023-03-26T16:38:51.851Z,27.11
2023-03-26T16:42:51.978Z,27.09
2023-03-26T16:46:52.186Z,27.09
2023-03-26T16:50:52.262Z,27.07
2023-03-26T16:54:52.405Z,27.10
2023-03-26T16:58:52.552Z,27.09
2023-03-26T17:02:52.798Z,27.07
2023-03-26T17:06:52.877Z,27.10
2023-03-26T17:10:53.286Z,27.06
2023-03-26T17:14:53.216Z,27.07
2023-03-26T17:18:53.419Z,27.07
2023-03-26T17:22:53.537Z,27.07
2023-03-26T17:26:53.670Z,27.07
2023-03-26T17:30:53.984Z,27.05
2023-03-26T17:34:53.916Z,27.03
2023-03-26T17:38:54.080Z,27.03
2023-03-26T17:42:54.229Z,27.05
2023-03-26T17:46:54.397Z,27.02
2023-03-26T17:50:54.693Z,27.00
2023-03-26T17:54:54.677Z,27.00
2023-03-26T17:58:54.755Z,27.00
2023-03-26T18:02:55.044Z,27.00
2023-03-26T18:06:55.160Z,27.00
2023-03-26T18:10:55.476Z,27.00
2023-03-26T18:14:55.483Z,27.00
2023-03-26T18:18:55.631Z,26.98
2023-03-26T18:22:55.847Z,26.99
2023-03-26T18:26:55.988Z,26.99
2023-03-26T18:30:56.213Z,26.99
2023-03-26T18:34:56.157Z,27.00
2023-03-26T18:38:56.299Z,26.98
2023-03-26T18:42:56.477Z,26.98
2023-03-26T18:46:56.671Z,26.96
2023-03-26T18:50:57.043Z,26.98
2023-03-26T18:54:57.035Z,26.95
2023-03-26T18:58:57.037Z,26.96
2023-03-26T19:02:57.296Z,26.93
2023-03-26T19:06:57.341Z,26.98
2023-03-26T19:10:57.504Z,26.93
2023-03-26T19:14:57.437Z,26.93
2023-03-26T19:18:57.694Z,26.99
2023-03-26T19:22:57.914Z,26.96
2023-03-26T19:26:57.708Z,26.96
2023-03-26T19:30:58.167Z,26.98
2023-03-26T19:34:58.075Z,26.95
2023-03-26T19:38:58.298Z,26.92
2023-03-26T19:42:58.361Z,26.95
2023-03-26T19:46:58.515Z,26.93
2023-03-26T19:50:58.760Z,26.93
2023-03-26T19:54:59.908Z,26.93
2023-03-26T19:58:59.012Z,26.92
2023-03-26T20:02:59.355Z,26.92
2023-03-26T20:06:59.287Z,26.93
2023-03-26T20:10:59.722Z,26.93
2023-03-26T20:14:59.483Z,26.92
2023-03-26T20:18:59.550Z,26.92
2023-03-26T20:22:59.749Z,26.93
2023-03-26T20:26:59.987Z,26.95
2023-03-26T20:31:00.162Z,26.92
2023-03-26T20:35:00.151Z,26.92
2023-03-26T20:39:00.337Z,26.92
2023-03-26T20:43:00.376Z,26.90
2023-03-26T20:47:00.585Z,26.92
2023-03-26T20:51:00.765Z,26.89
2023-03-26T20:55:00.992Z,26.90
2023-03-26T20:59:10.444Z,26.89
2023-03-26T21:03:02.129Z,26.89
2023-03-26T21:07:11.163Z,26.90
2023-03-26T21:11:02.079Z,26.90
2023-03-26T21:15:01.749Z,26.89
2023-03-26T21:19:00.985Z,26.88
2023-03-26T21:23:00.938Z,26.89
2023-03-26T21:27:00.894Z,26.88
2023-03-26T21:31:00.855Z,26.88
2023-03-26T21:35:00.849Z,26.86
2023-03-26T21:39:00.775Z,26.89
2023-03-26T21:43:00.844Z,26.89
2023-03-26T21:47:01.057Z,26.88
2023-03-26T21:51:01.022Z,26.88
2023-03-26T21:55:01.000Z,26.85
2023-03-26T21:59:00.928Z,26.86
2023-03-26T22:03:00.986Z,26.88
2023-03-26T22:07:00.854Z,26.88
2023-03-26T22:11:00.830Z,26.86
2023-03-26T22:15:00.771Z,26.88
2023-03-26T22:19:00.748Z,26.85
2023-03-26T22:23:00.721Z,26.82
2023-03-26T22:27:00.664Z,26.86
2023-03-26T22:31:00.705Z,26.83
2023-03-26T22:35:00.586Z,26.83
2023-03-26T22:39:00.561Z,26.82
2023-03-26T22:43:00.633Z,26.83
2023-03-26T22:47:00.816Z,26.83
2023-03-26T22:51:01.077Z,26.82
2023-03-26T22:55:01.424Z,26.83
2023-03-26T22:59:01.201Z,26.81
2023-03-26T23:03:01.431Z,26.83
2023-03-26T23:07:01.646Z,26.81
2023-03-26T23:11:01.846Z,26.82
2023-03-26T23:15:01.890Z,26.81
2023-03-26T23:19:02.105Z,26.79
2023-03-26T23:23:02.315Z,26.79
2023-03-26T23:27:02.465Z,26.81
2023-03-26T23:31:02.543Z,26.81
2023-03-26T23:35:02.698Z,26.79
2023-03-26T23:39:02.884Z,26.79
2023-03-26T23:43:03.076Z,26.79
2023-03-26T23:47:03.219Z,26.81
2023-03-26T23:51:04.394Z,26.79
2023-03-26T23:55:03.499Z,26.78
2023-03-26T23:59:03.619Z,26.79
